createdAt,value
2023-04-13T00:04:26.340Z,10.48
2023-04-13T00:09:23.150Z,10.55
2023-04-13T00:14:19.990Z,10.42
2023-04-13T00:19:17.150Z,10.56
2023-04-13T00:24:15.257Z,10.55
2023-04-13T00:29:12.018Z,10.50
2023-04-13T00:34:08.716Z,10.59
2023-04-13T00:39:05.825Z,10.38
2023-04-13T00:44:03.194Z,10.58
2023-04-13T00:49:01.177Z,10.63
2023-04-13T00:53:58.724Z,10.58
2023-04-13T00:58:57.314Z,10.62
2023-04-13T01:03:54.722Z,10.81
2023-04-13T01:08:54.300Z,10.72
2023-04-13T01:13:55.458Z,10.70
2023-04-13T01:18:52.680Z,10.57
2023-04-13T01:23:52.108Z,10.52
2023-04-13T01:28:50.691Z,10.20
2023-04-13T01:33:47.405Z,10.02
2023-04-13T01:38:44.102Z,9.80
2023-04-13T01:43:43.027Z,9.67
2023-04-13T01:48:44.229Z,9.37
2023-04-13T01:54:14.560Z,9.61
2023-04-13T01:59:16.039Z,9.76
2023-04-13T02:04:14.373Z,10.00
2023-04-13T02:09:13.804Z,9.81
2023-04-13T02:14:10.516Z,9.39
2023-04-13T02:19:07.603Z,9.33
2023-04-13T02:24:05.964Z,9.23
2023-04-13T02:29:02.563Z,9.04
2023-04-13T02:33:59.299Z,9.05
2023-04-13T02:38:56.128Z,9.14
2023-04-13T02:43:59.485Z,9.21
2023-04-13T02:48:59.338Z,9.01
2023-04-13T02:53:59.621Z,9.20
2023-04-13T02:58:56.787Z,9.04
2023-04-13T03:03:54.660Z,9.03
2023-04-13T03:08:54.552Z,9.27
2023-04-13T03:13:53.664Z,9.08
2023-04-13T03:18:51.580Z,9.08
2023-04-13T03:23:49.163Z,9.00
2023-04-13T03:28:47.714Z,9.11
2023-04-13T03:33:44.900Z,9.18
2023-04-13T03:38:41.748Z,9.36
2023-04-13T03:43:39.932Z,9.05
2023-04-13T03:48:41.654Z,8.75
2023-04-13T03:53:40.858Z,8.94
2023-04-13T03:58:38.196Z,8.77
2023-04-13T04:03:37.136Z,8.92
2023-04-13T04:08:37.073Z,9.07
2023-04-13T04:13:38.394Z,9.06
2023-04-13T04:18:39.961Z,9.21
2023-04-13T04:23:39.687Z,9.14
2023-04-13T04:28:38.642Z,9.14
2023-04-13T04:33:38.344Z,9.03
2023-04-13T04:38:36.090Z,8.92
2023-04-13T04:43:37.179Z,9.25
2023-04-13T04:48:37.126Z,9.35
2023-04-13T04:53:34.884Z,9.47
2023-04-13T04:58:36.452Z,9.48
2023-04-13T05:03:33.377Z,9.74
2023-04-13T05:08:56.762Z,9.64
2023-04-13T05:13:57.119Z,9.68
2023-04-13T05:18:56.037Z,9.80
2023-04-13T05:24:10.859Z,10.02
2023-04-13T05:29:12.691Z,10.08
2023-04-13T05:34:12.921Z,10.16
2023-04-13T05:39:16.277Z,10.27
2023-04-13T05:44:16.396Z,10.53
2023-04-13T05:49:15.069Z,10.71
2023-04-13T05:54:13.442Z,10.84
2023-04-13T05:59:16.991Z,10.94
2023-04-13T06:04:15.388Z,11.19
2023-04-13T06:09:14.138Z,11.26
2023-04-13T06:14:21.550Z,11.14
2023-04-13T06:19:36.395Z,11.17
2023-04-13T06:25:27.739Z,11.13
2023-04-13T06:30:49.786Z,11.24
2023-04-13T06:36:44.989Z,11.27
2023-04-13T06:42:22.621Z,11.59
2023-04-13T06:48:08.641Z,11.33
2023-04-13T06:53:43.171Z,11.86
2023-04-13T06:59:02.649Z,11.97
2023-04-13T07:04:29.013Z,12.07
2023-04-13T07:09:48.096Z,12.13
2023-04-13T07:14:50.324Z,12.29
2023-04-13T07:26:24.735Z,12.40
2023-04-13T07:32:20.859Z,12.80
2023-04-13T07:38:58.326Z,12.85
2023-04-13T07:50:00.223Z,13.15
2023-04-13T07:56:01.725Z,13.30
2023-04-13T08:07:42.398Z,13.55
2023-04-13T08:13:23.334Z,13.65
2023-04-13T08:24:35.697Z,13.78
2023-04-13T08:30:20.077Z,14.16
2023-04-13T08:35:32.473Z,13.94
2023-04-13T08:40:33.325Z,14.03
2023-04-13T08:45:30.710Z,14.22
2023-04-13T08:50:30.900Z,14.47
2023-04-13T08:55:31.889Z,14.51
2023-04-13T09:00:29.744Z,14.72
2023-04-13T09:05:31.205Z,14.67
2023-04-13T09:10:32.719Z,14.96
2023-04-13T09:15:30.657Z,15.21
2023-04-13T09:20:55.005Z,14.98
2023-04-13T09:26:03.592Z,15.05
2023-04-13T09:31:04.813Z,15.30
2023-04-13T09:36:11.855Z,15.59
2023-04-13T09:41:09.539Z,15.56
2023-04-13T09:46:11.632Z,15.50
2023-04-13T09:51:09.252Z,15.62
2023-04-13T09:56:06.382Z,15.84
2023-04-13T10:01:06.290Z,16.02
2023-04-13T10:06:05.970Z,15.94
2023-04-13T10:11:03.750Z,15.74
2023-04-13T10:16:12.480Z,16.10
2023-04-13T10:21:09.861Z,16.44
2023-04-13T10:26:09.938Z,16.40
2023-04-13T10:31:08.579Z,16.57
2023-04-13T10:36:08.702Z,16.53
2023-04-13T10:41:08.182Z,16.41
2023-04-13T10:46:08.006Z,16.64
2023-04-13T10:51:12.902Z,16.70
2023-04-13T10:56:15.512Z,16.61
2023-04-13T11:01:15.592Z,16.74
2023-04-13T11:06:14.296Z,16.74
2023-04-13T11:11:14.844Z,16.95
2023-04-13T11:16:11.762Z,17.28
2023-04-13T11:21:14.997Z,17.26
2023-04-13T11:26:11.658Z,17.27
2023-04-13T11:31:08.731Z,17.65
2023-04-13T11:36:06.015Z,17.42
2023-04-13T11:41:15.662Z,17.45
2023-04-13T11:46:15.655Z,17.43
2023-04-13T11:51:12.770Z,17.61
2023-04-13T11:56:13.947Z,17.80
2023-04-13T12:01:15.506Z,17.73
2023-04-13T12:06:17.560Z,17.78
2023-04-13T12:11:40.749Z,17.82
2023-04-13T12:17:03.073Z,17.75
2023-04-13T12:21:57.895Z,17.64
2023-04-13T12:27:16.505Z,17.73
2023-04-13T12:32:20.407Z,17.76
2023-04-13T12:37:25.393Z,17.92
2023-04-13T12:42:23.114Z,18.07
2023-04-13T12:47:19.941Z,17.95
2023-04-13T12:52:16.604Z,18.03
2023-04-13T12:57:16.540Z,18.25
2023-04-13T13:02:13.823Z,18.25
2023-04-13T13:07:10.469Z,18.38
2023-04-13T13:12:07.947Z,18.43
2023-04-13T13:17:09.500Z,18.28
2023-04-13T13:22:07.016Z,18.24
2023-04-13T13:32:03.819Z,18.21
2023-04-13T13:37:00.523Z,18.15
2023-04-13T13:41:58.470Z,18.09
2023-04-13T13:46:55.212Z,18.24
2023-04-13T13:51:54.867Z,18.36
2023-04-13T13:56:54.935Z,18.71
2023-04-13T14:01:53.757Z,18.86
2023-04-13T14:06:50.683Z,18.73
2023-04-13T14:11:50.133Z,18.58
2023-04-13T14:16:46.809Z,18.48
2023-04-13T14:21:44.261Z,18.43
2023-04-13T14:26:41.115Z,18.34
2023-04-13T14:31:38.046Z,18.32
2023-04-13T14:36:36.698Z,18.60
2023-04-13T14:41:34.237Z,18.55
2023-04-13T14:46:31.207Z,18.69
2023-04-13T14:51:28.454Z,18.78
2023-04-13T14:56:25.690Z,18.96
2023-04-13T15:01:24.401Z,19.11
2023-04-13T15:06:21.989Z,19.11
2023-04-13T15:11:20.745Z,19.08
2023-04-13T15:16:17.758Z,19.03
2023-04-13T15:21:15.607Z,18.84
2023-04-13T15:26:15.950Z,18.83
2023-04-13T15:31:12.804Z,18.81
2023-04-13T15:36:12.399Z,19.72
2023-04-13T15:41:10.533Z,23.26
2023-04-13T15:46:08.454Z,24.51
2023-04-13T15:51:06.881Z,24.72
2023-04-13T15:56:07.516Z,23.64
2023-04-13T16:01:09.475Z,21.55
2023-04-13T16:06:06.360Z,20.15
2023-04-13T16:11:03.029Z,19.72
2023-04-13T16:16:01.148Z,19.45
2023-04-13T16:20:58.763Z,19.21
2023-04-13T16:25:55.661Z,18.96
2023-04-13T16:30:52.512Z,18.76
2023-04-13T16:35:49.270Z,18.43
2023-04-13T16:40:46.924Z,18.08
2023-04-13T16:45:43.644Z,18.09
2023-04-13T16:50:40.790Z,17.84
2023-04-13T16:55:37.706Z,17.90
2023-04-13T17:00:35.263Z,17.78
2023-04-13T17:05:31.815Z,17.69
2023-04-13T17:10:28.466Z,17.69
2023-04-13T17:15:25.170Z,17.55
2023-04-13T17:20:22.716Z,17.49
2023-04-13T17:25:20.487Z,17.55
2023-04-13T17:30:23.554Z,17.63
2023-04-13T17:35:22.762Z,17.66
2023-04-13T17:40:20.401Z,17.66
2023-04-13T17:45:18.274Z,17.70
2023-04-13T17:50:16.471Z,17.70
2023-04-13T17:55:13.529Z,17.73
2023-04-13T18:00:12.108Z,17.70
2023-04-13T18:05:14.813Z,17.66
2023-04-13T18:10:20.985Z,17.66
2023-04-13T18:15:19.638Z,17.54
2023-04-13T18:20:18.816Z,17.45
2023-04-13T18:25:18.343Z,17.40
2023-04-13T18:30:15.205Z,17.32
2023-04-13T18:35:14.003Z,17.29
2023-04-13T18:40:11.228Z,17.22
2023-04-13T18:45:08.364Z,17.15
2023-04-13T18:50:05.571Z,17.09
2023-04-13T18:55:03.189Z,17.07
2023-04-13T18:59:59.991Z,17.06
2023-04-13T19:04:57.060Z,17.04
2023-04-13T19:09:56.580Z,17.00
2023-04-13T19:14:53.848Z,16.85
2023-04-13T19:19:50.871Z,16.62
2023-04-13T19:24:48.004Z,16.64
2023-04-13T19:29:45.516Z,16.55
2023-04-13T19:34:45.972Z,16.46
2023-04-13T19:39:45.764Z,16.60
2023-04-13T19:44:42.325Z,16.50
2023-04-13T19:49:39.012Z,16.56
2023-04-13T19:54:38.844Z,16.52
2023-04-13T19:59:35.615Z,16.48
2023-04-13T20:04:32.951Z,16.33
2023-04-13T20:09:29.904Z,16.35
2023-04-13T20:14:27.262Z,16.26
2023-04-13T20:19:24.626Z,16.21
2023-04-13T20:24:21.370Z,16.08
2023-04-13T20:29:21.272Z,16.10
2023-04-13T20:34:19.673Z,16.04
2023-04-13T20:39:21.204Z,16.04
2023-04-13T20:44:24.033Z,15.81
2023-04-13T20:49:22.580Z,15.83
2023-04-13T20:54:22.092Z,15.98
2023-04-13T20:59:21.397Z,15.99
2023-04-13T21:04:20.418Z,15.99
2023-04-13T21:09:18.077Z,16.06
2023-04-13T21:14:15.726Z,16.03
2023-04-13T21:19:12.425Z,15.91
2023-04-13T21:24:09.089Z,16.02
2023-04-13T21:29:07.166Z,16.04
2023-04-13T21:34:03.715Z,15.93
2023-04-13T21:39:00.610Z,15.96
2023-04-13T21:43:57.492Z,15.96
2023-04-13T21:48:54.936Z,15.92
2023-04-13T21:53:51.918Z,15.70
2023-04-13T21:58:48.575Z,15.40
2023-04-13T22:03:46.135Z,15.24
2023-04-13T22:08:43.670Z,15.41
2023-04-13T22:13:41.002Z,15.47
2023-04-13T22:18:39.593Z,15.47
2023-04-13T22:23:36.290Z,15.43
2023-04-13T22:28:33.567Z,15.46
2023-04-13T22:33:32.285Z,15.46
2023-04-13T22:38:28.962Z,15.46
2023-04-13T22:43:25.779Z,15.34
2023-04-13T22:48:23.201Z,15.26
2023-04-13T22:53:19.967Z,15.21
2023-04-13T22:58:16.582Z,15.02
2023-04-13T23:03:13.554Z,15.01
2023-04-13T23:08:13.505Z,15.13
2023-04-13T23:13:10.336Z,15.13
2023-04-13T23:18:10.155Z,15.08
2023-04-13T23:23:06.795Z,15.10
2023-04-13T23:28:04.290Z,15.01
2023-04-13T23:33:01.006Z,14.78
2023-04-13T23:37:57.692Z,15.01
2023-04-13T23:42:54.259Z,15.09
2023-04-13T23:47:51.807Z,14.91
2023-04-13T23:52:48.460Z,14.85
2023-04-13T23:57:45.308Z,14.76
